Time;durP1;ratioP1;P1;durP2;ratioP2;P2;SDS_P1;SDS_P2;PMS_P1;PMS_P2;Temp;Humidity;BMP_temperature;BMP_pressure;BME280_temperature;BME280_humidity;BME280_pressure;Samples;Min_cycle;Max_cycle;Signal;HPM_P1;HPM_P2
2023/06/27 00:05:00;;;;;;;1.90;1.13;;;;;;;17.91;59.67;101105.88;15777190;28;20411;-48
2023/06/27 00:12:44;;;;;;;2.83;1.33;;;;;;;17.71;59.21;101111.78;15760937;28;20131;-52
2023/06/27 00:20:18;;;;;;;2.85;1.02;;;;;;;17.57;60.13;101125.69;15786926;28;20047;-54
2023/06/27 00:27:53;;;;;;;1.92;1.20;;;;;;;17.51;60.61;101132.09;15791993;28;20435;-52
2023/06/27 00:35:26;;;;;;;2.17;1.15;;;;;;;17.42;60.75;101132.75;15826051;28;20444;-55
2023/06/27 00:43:01;;;;;;;;;;;;;;;16.94;61.57;101134.91;15794039;28;20132;-47
2023/06/27 00:50:36;;;;;;;4.05;1.35;;;;;;;16.91;61.76;101140.00;15775426;28;19953;-49
2023/06/27 00:58:11;;;;;;;3.67;1.42;;;;;;;17.12;60.99;101139.31;15791773;28;20147;-49
2023/06/27 01:05:44;;;;;;;2.38;1.58;;;;;;;16.93;62.08;101141.41;15757633;28;20032;-47
2023/06/27 01:13:24;;;;;;;4.53;1.55;;;;;;;17.25;61.94;101146.28;15782836;28;20089;-50
2023/06/27 01:20:58;;;;;;;7.85;2.85;;;;;;;16.96;62.24;101140.91;15756753;28;20062;-50
2023/06/27 01:28:33;;;;;;;8.52;2.20;;;;;;;16.81;63.43;101156.88;15776351;28;20039;-52
2023/06/27 01:36:12;;;;;;;2.85;2.53;;;;;;;16.67;64.30;101159.03;15784921;28;20112;-50
2023/06/27 01:43:49;;;;;;;7.40;2.83;;;;;;;16.86;64.15;101154.28;15767255;28;20044;-52
2023/06/27 01:51:22;;;;;;;4.30;3.90;;;;;;;16.41;65.44;101160.38;15784964;28;20159;-51
2023/06/27 01:58:59;;;;;;;5.70;5.15;;;;;;;16.15;66.50;101164.44;15785317;28;20047;-51
2023/06/27 02:06:40;;;;;;;6.18;5.65;;;;;;;16.01;67.03;101157.59;15783419;28;20093;-53
2023/06/27 02:22:06;;;;;;;20.63;18.85;;;;;;;15.44;68.19;101144.59;15781291;28;20129;-56
2023/06/27 02:29:41;;;;;;;21.88;20.52;;;;;;;15.73;67.60;101158.31;15783339;28;20071;-53
2023/06/27 02:37:14;;;;;;;23.27;21.50;;;;;;;15.82;67.59;101165.03;15782771;28;20036;-52
2023/06/27 02:44:49;;;;;;;24.58;23.08;;;;;;;15.47;67.97;101160.34;15782022;28;20080;-55
2023/06/27 02:52:22;;;;;;;70.15;65.85;;;;;;;15.28;68.28;101166.88;15782029;28;20075;-54
2023/06/27 02:59:56;;;;;;;647.05;591.05;;;;;;;15.47;67.45;101165.75;15779561;28;20055;-53
2023/06/27 03:07:29;;;;;;;720.20;654.65;;;;;;;15.47;67.77;101156.81;15820540;28;20044;-53
2023/06/27 03:15:05;;;;;;;585.47;529.15;;;;;;;15.27;68.38;101170.66;15778882;28;20107;-50
2023/06/27 03:22:38;;;;;;;577.08;525.80;;;;;;;15.25;68.65;101172.78;15759039;28;20047;-52
2023/06/27 03:30:14;;;;;;;447.52;411.17;;;;;;;15.42;68.37;101173.75;15780277;28;20048;-54
2023/06/27 03:37:51;;;;;;;379.23;348.95;;;;;;;15.21;69.02;101172.41;15780019;28;20047;-56
2023/06/27 03:45:25;;;;;;;176.73;161.70;;;;;;;15.32;68.66;101189.72;15778822;28;20441;-52
2023/06/27 03:52:58;;;;;;;182.77;132.38;;;;;;;15.24;68.99;101193.56;15761258;28;20044;-53
2023/06/27 04:00:32;;;;;;;35.45;19.52;;;;;;;15.33;69.10;101183.25;15778533;28;20042;-55
2023/06/27 04:08:05;;;;;;;577.92;177.02;;;;;;;15.44;68.70;101187.88;15776962;28;20097;-50
2023/06/27 04:15:42;;;;;;;22.45;3.95;;;;;;;15.26;68.61;101191.47;15774448;28;20509;-54
2023/06/27 04:23:18;;;;;;;64.13;7.15;;;;;;;15.29;68.81;101198.28;15775996;28;20040;-57
2023/06/27 04:30:53;;;;;;;46.25;4.38;;;;;;;15.71;68.30;101185.59;15776907;28;20039;-52
2023/06/27 04:38:26;;;;;;;138.75;7.75;;;;;;;15.72;67.44;101198.09;15775099;28;20040;-56
2023/06/27 04:46:03;;;;;;;16.60;3.50;;;;;;;15.86;67.40;101197.88;15787145;28;20198;-54
2023/06/27 04:53:40;;;;;;;14.55;3.58;;;;;;;15.89;67.15;101186.56;15753461;28;20075;-54
2023/06/27 05:01:15;;;;;;;13.85;3.65;;;;;;;16.20;65.69;101194.34;15774549;28;20048;-55
2023/06/27 05:08:48;;;;;;;13.98;3.05;;;;;;;16.31;65.89;101176.41;15774182;28;20044;-57
2023/06/27 05:16:22;;;;;;;10.45;2.88;;;;;;;16.67;64.49;101190.72;15773694;28;20097;-52
2023/06/27 05:23:57;;;;;;;11.57;3.15;;;;;;;17.20;63.29;101181.47;15801525;28;20047;-54
2023/06/27 05:31:33;;;;;;;12.45;3.00;;;;;;;16.79;63.73;101199.69;15805489;28;20548;-57
2023/06/27 05:39:06;;;;;;;9.73;2.70;;;;;;;16.80;63.86;101194.03;15790908;28;20040;-57
2023/06/27 05:46:48;;;;;;;11.05;3.03;;;;;;;17.11;63.91;101191.06;15791768;28;20044;-57
2023/06/27 05:54:22;;;;;;;11.25;2.65;;;;;;;16.85;63.70;101198.72;15793123;28;20150;-57
2023/06/27 06:01:56;;;;;;;15.75;2.45;;;;;;;17.49;61.65;101204.81;15775138;28;20550;-57
2023/06/27 06:09:30;;;;;;;29.38;2.80;;;;;;;17.26;61.43;101213.91;15827685;28;20528;-53
2023/06/27 06:17:05;;;;;;;596.20;138.95;;;;;;;17.46;61.76;101216.16;15782031;28;20055;-54
2023/06/27 06:24:40;;;;;;;11.30;2.47;;;;;;;17.35;60.92;101214.34;15802682;28;20072;-58
2023/06/27 06:32:15;;;;;;;8.52;2.10;;;;;;;17.66;60.62;101212.16;15801436;28;20420;-51
2023/06/27 06:39:48;;;;;;;97.40;6.53;;;;;;;17.64;59.83;101209.69;15784217;28;20116;-58
2023/06/27 06:47:22;;;;;;;;;;;;;;;17.33;61.18;101219.97;15783054;28;20459;-56
2023/06/27 06:54:55;;;;;;;9.85;2.08;;;;;;;17.84;59.34;101223.63;15800663;28;19928;-55
2023/06/27 07:02:30;;;;;;;11.07;2.00;;;;;;;18.47;56.84;101216.16;15821326;28;20059;-51
2023/06/27 07:10:03;;;;;;;12.30;2.05;;;;;;;18.08;58.06;101220.72;15834314;28;20052;-57
2023/06/27 07:17:39;;;;;;;9.52;1.55;;;;;;;19.00;54.16;101217.38;15799647;28;20101;-56
2023/06/27 07:25:11;;;;;;;7.38;1.40;;;;;;;18.96;55.39;101207.25;15790266;28;20044;-53
2023/06/27 07:32:46;;;;;;;175.05;61.90;;;;;;;19.55;54.83;101201.88;15798429;28;20040;-51
2023/06/27 07:40:18;;;;;;;8.05;1.50;;;;;;;19.08;55.03;101197.06;15780126;28;20055;-55
2023/06/27 07:47:52;;;;;;;;;;;;;;;18.31;55.09;101198.78;15779594;28;20036;-53
2023/06/27 07:55:26;;;;;;;6.50;1.52;;;;;;;18.53;54.60;101179.78;15797419;28;19924;-60
2023/06/27 08:03:02;;;;;;;8.23;1.35;;;;;;;19.58;55.09;101180.41;15778387;28;20458;-58
2023/06/27 08:10:35;;;;;;;7.18;1.30;;;;;;;20.15;49.56;101129.06;15796396;28;20047;-55
2023/06/27 08:18:09;;;;;;;6.72;1.42;;;;;;;19.49;51.63;101181.13;15795878;28;20503;-57
2023/06/27 08:25:43;;;;;;;6.90;1.23;;;;;;;18.90;51.90;101181.09;15776770;28;20036;-57
2023/06/27 08:33:17;;;;;;;;;;;;;;;18.86;51.99;101176.16;15776304;28;20139;-58
2023/06/27 08:40:54;;;;;;;4.57;1.60;;;;;;;18.78;53.70;101167.59;15775845;28;19981;-57
2023/06/27 08:48:28;;;;;;;12.93;1.70;;;;;;;20.09;49.12;101150.00;15794223;28;20040;-58
2023/06/27 08:56:08;;;;;;;8.07;1.48;;;;;;;20.24;48.72;101150.09;15775634;28;20150;-58
2023/06/27 09:03:42;;;;;;;3.50;1.20;;;;;;;19.66;50.60;101156.53;15808131;28;20059;-56
2023/06/27 09:11:16;;;;;;;6.20;1.40;;;;;;;18.98;54.84;101154.25;15814897;28;20051;-55
2023/06/27 09:18:51;;;;;;;4.32;1.23;;;;;;;19.45;53.31;101137.28;15774697;28;20063;-57
2023/06/27 09:26:28;;;;;;;3.15;1.10;;;;;;;20.13;51.08;101121.13;15774930;28;20338;-54
2023/06/27 09:34:05;;;;;;;5.22;1.38;;;;;;;20.13;47.62;101121.13;15792921;23;20521;-53
2023/06/27 09:41:44;;;;;;;4.85;1.13;;;;;;;21.03;46.38;101115.47;15665742;28;20077;-53
2023/06/27 09:49:21;;;;;;;4.75;1.30;;;;;;;21.54;47.24;101116.34;15742049;28;20044;-52
2023/06/27 09:56:56;;;;;;;5.25;1.08;;;;;;;22.19;46.01;101100.09;15746566;28;20098;-51
2023/06/27 10:04:31;;;;;;;2.03;0.80;;;;;;;22.26;44.33;101106.09;15746470;28;20051;-53
2023/06/27 10:12:05;;;;;;;4.95;1.20;;;;;;;21.01;49.78;101125.84;15745914;28;20127;-54
2023/06/27 10:19:40;;;;;;;8.23;1.60;;;;;;;19.76;48.92;101113.81;15745946;28;20055;-55
2023/06/27 10:27:19;;;;;;;4.65;1.10;;;;;;;20.39;48.12;101112.00;15745086;28;20043;-54
2023/06/27 10:34:58;;;;;;;4.72;1.00;;;;;;;19.88;44.19;101136.25;15745421;28;20044;-54
2023/06/27 10:42:31;;;;;;;7.35;1.38;;;;;;;17.18;58.17;101160.03;15744718;28;20048;-52
2023/06/27 10:50:11;;;;;;;3.25;0.90;;;;;;;16.91;59.87;101161.69;15726202;28;20102;-54
2023/06/27 10:57:46;;;;;;;3.47;0.90;;;;;;;16.31;65.98;101165.56;15743213;28;20106;-57
2023/06/27 11:05:35;;;;;;;741.40;42.13;;;;;;;16.57;66.83;101156.94;15743553;28;20131;-52
2023/06/27 11:13:14;;;;;;;3.15;1.02;;;;;;;18.64;64.08;101153.53;15724466;28;20492;-54
2023/06/27 11:20:50;;;;;;;4.85;0.95;;;;;;;20.18;56.24;101142.97;15724988;28;20135;-55
2023/06/27 11:28:24;;;;;;;2.20;1.17;;;;;;;20.23;52.04;101129.34;15716576;28;20087;-55
2023/06/27 11:36:00;;;;;;;4.72;1.13;;;;;;;21.70;50.61;101117.16;15741974;28;20047;-56
2023/06/27 11:43:33;;;;;;;4.03;0.90;;;;;;;22.49;50.09;101101.09;15742046;28;20412;-53
2023/06/27 11:51:09;;;;;;;4.38;1.00;;;;;;;22.60;45.81;101097.19;15740795;28;20114;-52
2023/06/27 11:58:42;;;;;;;3.75;1.17;;;;;;;21.97;47.15;101080.47;15717229;28;20047;-53
2023/06/27 12:06:28;;;;;;;3.53;1.02;;;;;;;21.67;49.16;101070.44;15738705;28;20394;-54
2023/06/27 12:14:01;;;;;;;4.20;1.25;;;;;;;20.34;50.28;101084.72;15717179;28;20072;-56
2023/06/27 12:21:36;;;;;;;3.72;1.00;;;;;;;17.44;65.91;101120.59;15720345;28;20541;-58
2023/06/27 12:29:10;;;;;;;3.55;0.88;;;;;;;17.44;70.55;101144.19;15738290;28;20092;-54
2023/06/27 12:36:44;;;;;;;3.55;1.25;;;;;;;16.69;72.37;101156.06;15736541;28;20045;-49
2023/06/27 12:44:17;;;;;;;8.60;1.73;;;;;;;16.27;72.18;101124.63;15731328;28;20044;-50
2023/06/27 12:51:52;;;;;;;7.80;3.20;;;;;;;16.62;71.09;101122.88;15718988;28;20045;-50
2023/06/27 12:59:27;;;;;;;8.95;2.20;;;;;;;16.94;71.20;101128.66;15734374;28;20044;-49
2023/06/27 13:07:01;;;;;;;4.07;1.42;;;;;;;17.40;67.99;101121.34;15699215;28;20060;-50
2023/06/27 13:14:35;;;;;;;3.35;1.30;;;;;;;17.13;68.22;101111.13;15736543;28;20447;-51
2023/06/27 13:22:09;;;;;;;;;;;;;;;17.71;65.28;101109.06;15700848;28;20057;-52
2023/06/27 13:29:42;;;;;;;1.67;0.70;;;;;;;18.56;59.23;101100.47;15735963;28;19924;-51
2023/06/27 13:37:17;;;;;;;5.22;1.20;;;;;;;19.16;61.00;101108.69;15735144;28;20075;-49
2023/06/27 13:44:50;;;;;;;2.88;0.90;;;;;;;19.54;58.14;101103.03;15734794;28;20427;-51
2023/06/27 13:52:25;;;;;;;3.45;1.00;;;;;;;18.27;63.31;101094.38;15735264;28;20091;-49
2023/06/27 13:59:58;;;;;;;3.47;1.10;;;;;;;19.26;61.34;101076.16;15735395;28;20106;-48
2023/06/27 14:07:32;;;;;;;;;;;;;;;19.95;63.62;101070.63;15735556;28;20037;-50
2023/06/27 14:15:06;;;;;;;6.32;2.05;;;;;;;19.78;59.10;101068.09;15735934;28;19956;-51
2023/06/27 14:22:40;;;;;;;3.78;0.90;;;;;;;20.78;57.54;101054.31;15736286;28;20072;-48
2023/06/27 14:30:14;;;;;;;3.80;0.80;;;;;;;21.00;52.15;101032.22;15737451;28;20060;-51
2023/06/27 14:37:59;;;;;;;4.05;0.90;;;;;;;20.92;51.04;101021.84;15744244;28;20041;-50
2023/06/27 14:45:32;;;;;;;2.15;0.60;;;;;;;21.31;48.22;101029.50;15745195;28;20036;-50
2023/06/27 14:53:08;;;;;;;1.85;0.50;;;;;;;20.01;47.10;101039.63;15744692;28;20109;-52
2023/06/27 15:00:42;;;;;;;4.25;1.00;;;;;;;20.22;53.00;101048.69;15723068;28;20036;-50
2023/06/27 15:08:17;;;;;;;2.05;0.80;;;;;;;19.91;53.62;101060.53;15730114;28;20037;-48
2023/06/27 15:15:50;;;;;;;4.15;0.98;;;;;;;19.64;55.76;101075.09;15723308;28;20492;-49
2023/06/27 15:23:30;;;;;;;42.20;13.77;;;;;;;19.09;54.53;101076.25;15743151;28;20291;-49
2023/06/27 15:31:04;;;;;;;24.27;9.77;;;;;;;18.86;57.23;101097.25;15741654;28;20037;-51
2023/06/27 15:38:46;;;;;;;3.08;0.73;;;;;;;18.59;56.15;101101.84;15667567;23;20144;-43
2023/06/27 15:46:18;;;;;;;1231.22;73.32;;;;;;;18.88;53.91;101085.31;15702502;28;20029;-51
2023/06/27 15:53:52;;;;;;;;;;;;;;;19.42;52.03;101058.84;15742880;28;20059;-46
2023/06/27 16:01:26;;;;;;;12.32;0.95;;;;;;;19.54;50.06;101037.69;15706179;28;19939;-50
2023/06/27 16:09:02;;;;;;;1.08;0.38;;;;;;;19.94;49.05;101035.47;15703001;28;20113;-49
2023/06/27 16:16:35;;;;;;;1.95;0.40;;;;;;;19.99;47.63;101044.50;15737175;28;20048;-43
2023/06/27 16:24:10;;;;;;;1.02;0.75;;;;;;;19.86;48.95;101034.91;15733359;28;20512;-48
2023/06/27 16:31:43;;;;;;;15.18;2.13;;;;;;;19.22;49.57;101054.06;15732621;28;20059;-51
2023/06/27 16:39:17;;;;;;;183.85;11.60;;;;;;;18.83;50.76;101040.66;15746655;28;20047;-45
2023/06/27 16:46:51;;;;;;;14.32;1.45;;;;;;;18.93;49.37;101052.72;15737651;28;20128;-48
2023/06/27 16:54:25;;;;;;;1.02;0.40;;;;;;;19.15;51.41;101058.06;15742327;28;20037;-47
2023/06/27 17:01:58;;;;;;;1.02;0.55;;;;;;;18.69;52.33;101050.31;15718163;28;20044;-47
2023/06/27 17:09:32;;;;;;;30.20;2.35;;;;;;;19.06;51.79;101055.81;15718795;28;20048;-48
2023/06/27 17:17:05;;;;;;;1.20;0.60;;;;;;;19.51;51.44;101061.91;15733419;28;20547;-49
2023/06/27 17:24:39;;;;;;;3.17;0.60;;;;;;;19.33;51.46;101055.78;15713588;28;20243;-45
2023/06/27 17:32:18;;;;;;;0.85;0.68;;;;;;;19.31;51.60;101055.22;15730185;28;20715;-46
2023/06/27 17:39:53;;;;;;;2.83;0.70;;;;;;;19.34;51.76;101049.25;15727603;28;20093;-50
2023/06/27 17:47:26;;;;;;;1.52;0.68;;;;;;;19.31;52.90;101038.06;15736359;28;20044;-50
2023/06/27 17:55:01;;;;;;;2.90;0.70;;;;;;;19.24;53.17;101042.91;15722278;28;20149;-47
2023/06/27 18:02:35;;;;;;;4.63;0.73;;;;;;;19.66;53.07;101040.22;15732111;28;20059;-47
2023/06/27 18:10:13;;;;;;;2.03;0.80;;;;;;;19.07;54.82;101038.44;15737405;28;20135;-50
2023/06/27 18:17:46;;;;;;;2.50;0.90;;;;;;;18.88;55.48;101039.06;15742195;28;20125;-49
2023/06/27 18:25:20;;;;;;;2.72;0.95;;;;;;;18.79;55.91;101030.53;15731731;28;20135;-47
2023/06/27 18:32:53;;;;;;;2.22;0.90;;;;;;;18.67;56.51;101036.13;15721966;28;20048;-49
2023/06/27 18:40:27;;;;;;;4.35;2.55;;;;;;;19.00;55.26;101040.53;15754401;28;20040;-44
2023/06/27 18:48:01;;;;;;;2.28;1.00;;;;;;;19.14;55.12;101042.84;15745530;28;20040;-45
2023/06/27 18:55:36;;;;;;;4.25;0.93;;;;;;;18.32;58.32;101039.28;15731801;28;20147;-45
2023/06/27 19:03:09;;;;;;;4.63;1.08;;;;;;;18.27;58.57;101044.66;15724588;28;20052;-43
2023/06/27 19:10:43;;;;;;;;;;;;;;;18.48;57.65;101053.88;15746332;28;20068;-50
2023/06/27 19:18:16;;;;;;;2.97;1.17;;;;;;;17.66;59.29;101028.34;15738737;28;19932;-48
2023/06/27 19:25:51;;;;;;;;;;;;;;;18.08;58.74;101063.97;15739966;28;20041;-45
2023/06/27 19:33:24;;;;;;;3.35;1.73;;;;;;;17.91;59.14;101059.69;15719372;28;19967;-44
2023/06/27 19:40:59;;;;;;;1178.82;85.88;;;;;;;17.90;59.80;101063.47;15751649;28;20109;-48
2023/06/27 19:48:32;;;;;;;4.60;1.40;;;;;;;17.56;60.39;101053.47;15741926;28;20144;-43
2023/06/27 19:56:07;;;;;;;454.45;24.02;;;;;;;17.32;61.39;101060.97;15728258;28;20059;-46
2023/06/27 20:03:40;;;;;;;4.78;1.30;;;;;;;16.73;62.86;101081.38;15720664;28;20056;-45
2023/06/27 20:11:17;;;;;;;4.25;1.33;;;;;;;17.17;61.70;101077.00;15732679;28;20082;-46
2023/06/27 20:18:50;;;;;;;270.70;19.40;;;;;;;16.61;63.22;101089.53;15734535;28;20161;-45
2023/06/27 20:26:24;;;;;;;203.32;17.65;;;;;;;16.26;64.11;101095.03;15715752;28;20397;-48
2023/06/27 20:33:57;;;;;;;5.20;1.70;;;;;;;16.14;64.21;101091.56;15731895;28;20049;-45
2023/06/27 20:41:39;;;;;;;188.05;11.15;;;;;;;16.27;64.02;101069.59;15736240;28;20047;-47
2023/06/27 20:49:12;;;;;;;2.23;1.10;;;;;;;16.41;61.45;101070.97;15727106;28;20037;-46
2023/06/27 20:56:46;;;;;;;377.20;21.35;;;;;;;16.17;60.86;101078.34;15741602;28;20512;-49
2023/06/27 21:04:24;;;;;;;78.40;4.00;;;;;;;16.18;60.63;101088.13;15734471;28;20048;-44
2023/06/27 21:12:00;;;;;;;104.30;6.85;;;;;;;16.06;60.58;101077.31;15736608;28;20055;-45
2023/06/27 21:19:32;;;;;;;117.85;7.03;;;;;;;15.89;60.95;101078.25;15715095;28;20477;-49
2023/06/27 21:27:08;;;;;;;4.78;1.45;;;;;;;15.34;63.14;101078.56;15712274;28;20118;-52
2023/06/27 21:34:41;;;;;;;4.55;1.40;;;;;;;15.38;63.89;101082.47;15729378;28;20369;-43
2023/06/27 21:42:16;;;;;;;3.67;1.48;;;;;;;15.09;65.42;101055.25;15724901;28;20203;-51
2023/06/27 21:49:49;;;;;;;262.33;22.38;;;;;;;15.34;66.05;101075.88;15751028;28;20562;-46
2023/06/27 21:57:23;;;;;;;4.63;2.00;;;;;;;14.87;68.88;101082.00;15749959;28;20106;-48
2023/06/27 22:04:57;;;;;;;3.83;1.85;;;;;;;14.82;69.88;101076.47;15747106;28;20068;-53
2023/06/27 22:12:45;;;;;;;3.13;2.10;;;;;;;14.82;70.65;101087.28;15747791;28;20484;-52
2023/06/27 22:20:17;;;;;;;3.70;2.13;;;;;;;14.69;71.09;101093.72;15723751;28;20049;-49
2023/06/27 22:27:51;;;;;;;8.87;2.23;;;;;;;15.24;69.81;101095.38;15724556;28;20032;-49
2023/06/27 22:35:24;;;;;;;5.47;2.45;;;;;;;14.74;71.61;101099.25;15739209;28;20442;-51
2023/06/27 22:43:00;;;;;;;5.70;2.30;;;;;;;15.07;70.22;101095.25;15748257;28;20459;-53
2023/06/27 22:50:33;;;;;;;4.18;2.28;;;;;;;14.90;70.94;101095.06;15743966;28;20079;-50
2023/06/27 22:58:07;;;;;;;4.83;2.10;;;;;;;15.07;69.92;101092.53;15745058;28;20406;-51
2023/06/27 23:05:41;;;;;;;8.40;2.72;;;;;;;15.09;70.02;101086.88;15727950;28;20114;-51
2023/06/27 23:13:16;;;;;;;3.75;2.28;;;;;;;15.28;69.28;101081.16;15723445;28;20052;-51
2023/06/27 23:20:50;;;;;;;160.70;22.15;;;;;;;15.10;69.94;101078.53;15737520;28;20041;-54
2023/06/27 23:28:27;;;;;;;3.75;2.20;;;;;;;15.29;69.47;101079.28;15720080;28;20165;-51
2023/06/27 23:36:00;;;;;;;187.93;26.55;;;;;;;15.18;70.20;101080.09;15704151;28;20044;-53
2023/06/27 23:43:34;;;;;;;10.68;2.30;;;;;;;14.83;71.36;101069.19;15743432;28;20136;-52
2023/06/27 23:51:10;;;;;;;3.83;2.20;;;;;;;14.91;71.01;101074.25;15730391;28;20055;-47
2023/06/27 23:58:44;;;;;;;5.10;2.70;;;;;;;14.57;71.81;101065.81;15740065;28;20055;-51
